sensor_id;sensor_type;location;lat;lon;timestamp;P1;P2;P0
56688;PMS5003;42565;53.342;-1.534;2024-03-25T00:00:26;17;15;
56688;PMS5003;42565;53.342;-1.534;2024-03-25T00:02:54;14;13;
56688;PMS5003;42565;53.342;-1.534;2024-03-25T00:05:21;12;11;
56688;PMS5003;42565;53.342;-1.534;2024-03-25T00:07:48;14;12;
56688;PMS5003;42565;53.342;-1.534;2024-03-25T00:10:15;14;13;
56688;PMS5003;42565;53.342;-1.534;2024-03-25T00:12:42;13;12;
56688;PMS5003;42565;53.342;-1.534;2024-03-25T00:15:09;14;13;
56688;PMS5003;42565;53.342;-1.534;2024-03-25T00:17:36;11;10;
56688;PMS5003;42565;53.342;-1.534;2024-03-25T00:20:03;13;12;
56688;PMS5003;42565;53.342;-1.534;2024-03-25T00:22:32;11;9;
56688;PMS5003;42565;53.342;-1.534;2024-03-25T00:24:59;12;8;
56688;PMS5003;42565;53.342;-1.534;2024-03-25T00:27:26;11;10;
56688;PMS5003;42565;53.342;-1.534;2024-03-25T00:29:53;9;9;
56688;PMS5003;42565;53.342;-1.534;2024-03-25T00:32:20;13;11;
56688;PMS5003;42565;53.342;-1.534;2024-03-25T00:34:47;12;9;
56688;PMS5003;42565;53.342;-1.534;2024-03-25T00:37:14;9;9;
56688;PMS5003;42565;53.342;-1.534;2024-03-25T00:39:41;11;9;
56688;PMS5003;42565;53.342;-1.534;2024-03-25T00:42:08;11;8;
56688;PMS5003;42565;53.342;-1.534;2024-03-25T00:44:35;8;8;
56688;PMS5003;42565;53.342;-1.534;2024-03-25T00:47:03;8;8;
56688;PMS5003;42565;53.342;-1.534;2024-03-25T00:49:30;9;8;
56688;PMS5003;42565;53.342;-1.534;2024-03-25T00:51:57;11;10;
56688;PMS5003;42565;53.342;-1.534;2024-03-25T00:54:24;8;8;
56688;PMS5003;42565;53.342;-1.534;2024-03-25T00:56:51;9;7;
56688;PMS5003;42565;53.342;-1.534;2024-03-25T00:59:18;12;10;
56688;PMS5003;42565;53.342;-1.534;2024-03-25T01:01:46;10;8;
56688;PMS5003;42565;53.342;-1.534;2024-03-25T01:04:13;7;7;
56688;PMS5003;42565;53.342;-1.534;2024-03-25T01:06:40;8;8;
56688;PMS5003;42565;53.342;-1.534;2024-03-25T01:09:08;7;7;
56688;PMS5003;42565;53.342;-1.534;2024-03-25T01:11:35;8;7;
56688;PMS5003;42565;53.342;-1.534;2024-03-25T01:14:03;8;8;
56688;PMS5003;42565;53.342;-1.534;2024-03-25T01:16:29;8;8;
56688;PMS5003;42565;53.342;-1.534;2024-03-25T01:18:56;8;8;
56688;PMS5003;42565;53.342;-1.534;2024-03-25T01:21:23;8;8;
56688;PMS5003;42565;53.342;-1.534;2024-03-25T01:23:50;10;9;
56688;PMS5003;42565;53.342;-1.534;2024-03-25T01:26:16;9;8;
56688;PMS5003;42565;53.342;-1.534;2024-03-25T01:28:44;11;10;
56688;PMS5003;42565;53.342;-1.534;2024-03-25T01:31:11;11;10;
56688;PMS5003;42565;53.342;-1.534;2024-03-25T01:33:37;9;9;
56688;PMS5003;42565;53.342;-1.534;2024-03-25T01:36:04;15;11;
56688;PMS5003;42565;53.342;-1.534;2024-03-25T01:38:32;11;9;
56688;PMS5003;42565;53.342;-1.534;2024-03-25T01:41:06;12;10;
56688;PMS5003;42565;53.342;-1.534;2024-03-25T01:43:34;12;9;
56688;PMS5003;42565;53.342;-1.534;2024-03-25T01:46:01;11;11;
56688;PMS5003;42565;53.342;-1.534;2024-03-25T01:48:28;16;14;
56688;PMS5003;42565;53.342;-1.534;2024-03-25T01:50:56;12;9;
56688;PMS5003;42565;53.342;-1.534;2024-03-25T01:53:24;12;12;
56688;PMS5003;42565;53.342;-1.534;2024-03-25T01:55:54;8;8;
56688;PMS5003;42565;53.342;-1.534;2024-03-25T01:58:23;11;10;
56688;PMS5003;42565;53.342;-1.534;2024-03-25T02:00:49;12;10;
56688;PMS5003;42565;53.342;-1.534;2024-03-25T02:03:18;13;12;
56688;PMS5003;42565;53.342;-1.534;2024-03-25T02:05:45;12;10;
56688;PMS5003;42565;53.342;-1.534;2024-03-25T02:08:14;11;11;
56688;PMS5003;42565;53.342;-1.534;2024-03-25T02:10:42;12;12;
56688;PMS5003;42565;53.342;-1.534;2024-03-25T02:13:09;12;11;
56688;PMS5003;42565;53.342;-1.534;2024-03-25T02:15:36;15;12;
56688;PMS5003;42565;53.342;-1.534;2024-03-25T02:18:04;12;11;
56688;PMS5003;42565;53.342;-1.534;2024-03-25T02:20:31;9;9;
56688;PMS5003;42565;53.342;-1.534;2024-03-25T02:22:59;14;12;
56688;PMS5003;42565;53.342;-1.534;2024-03-25T02:25:27;13;12;
56688;PMS5003;42565;53.342;-1.534;2024-03-25T02:27:57;12;11;
56688;PMS5003;42565;53.342;-1.534;2024-03-25T02:30:24;12;11;
56688;PMS5003;42565;53.342;-1.534;2024-03-25T02:32:52;12;12;
56688;PMS5003;42565;53.342;-1.534;2024-03-25T02:35:19;12;12;
56688;PMS5003;42565;53.342;-1.534;2024-03-25T02:37:47;11;11;
56688;PMS5003;42565;53.342;-1.534;2024-03-25T02:40:17;15;14;
56688;PMS5003;42565;53.342;-1.534;2024-03-25T02:42:47;15;14;
56688;PMS5003;42565;53.342;-1.534;2024-03-25T02:45:14;10;10;
56688;PMS5003;42565;53.342;-1.534;2024-03-25T02:47:41;18;16;
56688;PMS5003;42565;53.342;-1.534;2024-03-25T02:50:09;13;12;
56688;PMS5003;42565;53.342;-1.534;2024-03-25T02:52:36;13;12;
56688;PMS5003;42565;53.342;-1.534;2024-03-25T02:55:04;14;13;
56688;PMS5003;42565;53.342;-1.534;2024-03-25T02:57:32;15;13;
56688;PMS5003;42565;53.342;-1.534;2024-03-25T02:59:59;14;14;
56688;PMS5003;42565;53.342;-1.534;2024-03-25T03:02:26;15;13;
56688;PMS5003;42565;53.342;-1.534;2024-03-25T03:04:53;18;16;
56688;PMS5003;42565;53.342;-1.534;2024-03-25T03:07:20;17;15;
56688;PMS5003;42565;53.342;-1.534;2024-03-25T03:09:47;16;15;
56688;PMS5003;42565;53.342;-1.534;2024-03-25T03:12:14;15;14;
56688;PMS5003;42565;53.342;-1.534;2024-03-25T03:14:41;16;15;
56688;PMS5003;42565;53.342;-1.534;2024-03-25T03:17:08;14;13;
56688;PMS5003;42565;53.342;-1.534;2024-03-25T03:19:36;15;13;
56688;PMS5003;42565;53.342;-1.534;2024-03-25T03:22:04;16;14;
56688;PMS5003;42565;53.342;-1.534;2024-03-25T03:24:31;16;13;
56688;PMS5003;42565;53.342;-1.534;2024-03-25T03:26:58;15;14;
56688;PMS5003;42565;53.342;-1.534;2024-03-25T03:29:25;17;14;
56688;PMS5003;42565;53.342;-1.534;2024-03-25T03:31:51;17;15;
56688;PMS5003;42565;53.342;-1.534;2024-03-25T03:34:19;16;13;
56688;PMS5003;42565;53.342;-1.534;2024-03-25T03:36:46;16;14;
56688;PMS5003;42565;53.342;-1.534;2024-03-25T03:39:13;16;15;
56688;PMS5003;42565;53.342;-1.534;2024-03-25T03:41:41;16;14;
56688;PMS5003;42565;53.342;-1.534;2024-03-25T03:44:08;14;13;
56688;PMS5003;42565;53.342;-1.534;2024-03-25T03:46:36;14;13;
56688;PMS5003;42565;53.342;-1.534;2024-03-25T03:49:03;16;15;
56688;PMS5003;42565;53.342;-1.534;2024-03-25T03:51:30;16;15;
56688;PMS5003;42565;53.342;-1.534;2024-03-25T03:53:57;16;14;
56688;PMS5003;42565;53.342;-1.534;2024-03-25T03:56:24;16;15;
56688;PMS5003;42565;53.342;-1.534;2024-03-25T03:58:52;14;13;
56688;PMS5003;42565;53.342;-1.534;2024-03-25T04:01:18;17;16;
56688;PMS5003;42565;53.342;-1.534;2024-03-25T04:03:46;18;15;
56688;PMS5003;42565;53.342;-1.534;2024-03-25T04:06:18;16;16;
56688;PMS5003;42565;53.342;-1.534;2024-03-25T04:08:45;15;13;
56688;PMS5003;42565;53.342;-1.534;2024-03-25T04:11:12;15;14;
56688;PMS5003;42565;53.342;-1.534;2024-03-25T04:13:44;16;14;
56688;PMS5003;42565;53.342;-1.534;2024-03-25T04:16:13;14;13;
56688;PMS5003;42565;53.342;-1.534;2024-03-25T04:18:40;16;14;
56688;PMS5003;42565;53.342;-1.534;2024-03-25T04:21:10;18;14;
56688;PMS5003;42565;53.342;-1.534;2024-03-25T04:23:38;17;16;
56688;PMS5003;42565;53.342;-1.534;2024-03-25T04:26:06;13;12;
56688;PMS5003;42565;53.342;-1.534;2024-03-25T04:28:33;17;14;
56688;PMS5003;42565;53.342;-1.534;2024-03-25T04:31:01;17;15;
56688;PMS5003;42565;53.342;-1.534;2024-03-25T04:33:28;14;13;
56688;PMS5003;42565;53.342;-1.534;2024-03-25T04:35:55;17;16;
56688;PMS5003;42565;53.342;-1.534;2024-03-25T04:38:22;14;13;
56688;PMS5003;42565;53.342;-1.534;2024-03-25T04:40:50;16;14;
56688;PMS5003;42565;53.342;-1.534;2024-03-25T04:43:17;14;14;
56688;PMS5003;42565;53.342;-1.534;2024-03-25T04:45:44;14;14;
56688;PMS5003;42565;53.342;-1.534;2024-03-25T04:48:13;14;13;
56688;PMS5003;42565;53.342;-1.534;2024-03-25T04:50:39;13;12;
56688;PMS5003;42565;53.342;-1.534;2024-03-25T04:53:07;18;15;
56688;PMS5003;42565;53.342;-1.534;2024-03-25T04:55:34;17;17;
56688;PMS5003;42565;53.342;-1.534;2024-03-25T04:58:02;17;15;
56688;PMS5003;42565;53.342;-1.534;2024-03-25T05:00:29;15;14;
56688;PMS5003;42565;53.342;-1.534;2024-03-25T05:02:56;16;13;
56688;PMS5003;42565;53.342;-1.534;2024-03-25T05:05:23;13;13;
56688;PMS5003;42565;53.342;-1.534;2024-03-25T05:07:50;12;11;
56688;PMS5003;42565;53.342;-1.534;2024-03-25T05:10:17;15;15;
56688;PMS5003;42565;53.342;-1.534;2024-03-25T05:12:44;14;13;
56688;PMS5003;42565;53.342;-1.534;2024-03-25T05:15:11;15;13;
56688;PMS5003;42565;53.342;-1.534;2024-03-25T05:17:38;16;14;
56688;PMS5003;42565;53.342;-1.534;2024-03-25T05:20:06;14;13;
56688;PMS5003;42565;53.342;-1.534;2024-03-25T05:22:34;18;15;
56688;PMS5003;42565;53.342;-1.534;2024-03-25T05:25:01;14;13;
56688;PMS5003;42565;53.342;-1.534;2024-03-25T05:27:28;15;13;
56688;PMS5003;42565;53.342;-1.534;2024-03-25T05:29:55;14;13;
56688;PMS5003;42565;53.342;-1.534;2024-03-25T05:32:22;10;9;
56688;PMS5003;42565;53.342;-1.534;2024-03-25T05:34:48;10;9;
56688;PMS5003;42565;53.342;-1.534;2024-03-25T05:37:15;15;13;
56688;PMS5003;42565;53.342;-1.534;2024-03-25T05:39:43;14;13;
56688;PMS5003;42565;53.342;-1.534;2024-03-25T05:42:10;11;10;
56688;PMS5003;42565;53.342;-1.534;2024-03-25T05:44:37;14;13;
56688;PMS5003;42565;53.342;-1.534;2024-03-25T05:47:05;13;12;
56688;PMS5003;42565;53.342;-1.534;2024-03-25T05:49:32;15;13;
56688;PMS5003;42565;53.342;-1.534;2024-03-25T05:51:59;14;13;
56688;PMS5003;42565;53.342;-1.534;2024-03-25T05:54:25;12;12;
56688;PMS5003;42565;53.342;-1.534;2024-03-25T05:56:53;12;12;
56688;PMS5003;42565;53.342;-1.534;2024-03-25T05:59:20;15;14;
56688;PMS5003;42565;53.342;-1.534;2024-03-25T06:01:46;14;14;
56688;PMS5003;42565;53.342;-1.534;2024-03-25T06:04:13;14;14;
56688;PMS5003;42565;53.342;-1.534;2024-03-25T06:06:40;15;15;
56688;PMS5003;42565;53.342;-1.534;2024-03-25T06:09:07;14;13;
56688;PMS5003;42565;53.342;-1.534;2024-03-25T06:11:34;16;15;
56688;PMS5003;42565;53.342;-1.534;2024-03-25T06:14:01;17;13;
56688;PMS5003;42565;53.342;-1.534;2024-03-25T06:16:28;15;13;
56688;PMS5003;42565;53.342;-1.534;2024-03-25T06:18:55;16;15;
56688;PMS5003;42565;53.342;-1.534;2024-03-25T06:21:22;13;13;
56688;PMS5003;42565;53.342;-1.534;2024-03-25T06:23:49;13;13;
56688;PMS5003;42565;53.342;-1.534;2024-03-25T06:26:16;15;13;
56688;PMS5003;42565;53.342;-1.534;2024-03-25T06:28:42;14;12;
56688;PMS5003;42565;53.342;-1.534;2024-03-25T06:31:09;12;11;
56688;PMS5003;42565;53.342;-1.534;2024-03-25T06:33:36;12;12;
56688;PMS5003;42565;53.342;-1.534;2024-03-25T06:36:04;13;10;
56688;PMS5003;42565;53.342;-1.534;2024-03-25T06:38:31;13;11;
56688;PMS5003;42565;53.342;-1.534;2024-03-25T06:40:58;12;12;
56688;PMS5003;42565;53.342;-1.534;2024-03-25T06:43:25;12;10;
56688;PMS5003;42565;53.342;-1.534;2024-03-25T06:45:52;11;10;
56688;PMS5003;42565;53.342;-1.534;2024-03-25T06:48:20;12;11;
56688;PMS5003;42565;53.342;-1.534;2024-03-25T06:50:55;13;13;
56688;PMS5003;42565;53.342;-1.534;2024-03-25T06:53:23;11;10;
56688;PMS5003;42565;53.342;-1.534;2024-03-25T06:55:52;12;10;
56688;PMS5003;42565;53.342;-1.534;2024-03-25T06:58:20;12;12;
56688;PMS5003;42565;53.342;-1.534;2024-03-25T07:00:48;13;11;
56688;PMS5003;42565;53.342;-1.534;2024-03-25T07:03:15;18;15;
56688;PMS5003;42565;53.342;-1.534;2024-03-25T07:05:44;16;14;
56688;PMS5003;42565;53.342;-1.534;2024-03-25T07:08:11;14;13;
56688;PMS5003;42565;53.342;-1.534;2024-03-25T07:10:38;12;11;
56688;PMS5003;42565;53.342;-1.534;2024-03-25T07:13:08;10;10;
56688;PMS5003;42565;53.342;-1.534;2024-03-25T07:15:36;14;12;
56688;PMS5003;42565;53.342;-1.534;2024-03-25T07:18:03;13;12;
56688;PMS5003;42565;53.342;-1.534;2024-03-25T07:20:31;13;12;
56688;PMS5003;42565;53.342;-1.534;2024-03-25T07:22:58;11;11;
56688;PMS5003;42565;53.342;-1.534;2024-03-25T07:25:25;11;10;
56688;PMS5003;42565;53.342;-1.534;2024-03-25T07:27:53;14;13;
56688;PMS5003;42565;53.342;-1.534;2024-03-25T07:30:19;11;10;
56688;PMS5003;42565;53.342;-1.534;2024-03-25T07:32:47;10;9;
56688;PMS5003;42565;53.342;-1.534;2024-03-25T07:35:14;12;11;
56688;PMS5003;42565;53.342;-1.534;2024-03-25T07:37:42;9;9;
56688;PMS5003;42565;53.342;-1.534;2024-03-25T07:40:11;11;11;
56688;PMS5003;42565;53.342;-1.534;2024-03-25T07:42:39;10;10;
56688;PMS5003;42565;53.342;-1.534;2024-03-25T07:45:07;10;10;
56688;PMS5003;42565;53.342;-1.534;2024-03-25T07:47:35;11;10;
56688;PMS5003;42565;53.342;-1.534;2024-03-25T07:50:02;11;10;
56688;PMS5003;42565;53.342;-1.534;2024-03-25T07:52:30;10;9;
56688;PMS5003;42565;53.342;-1.534;2024-03-25T07:54:57;10;8;
56688;PMS5003;42565;53.342;-1.534;2024-03-25T07:57:24;10;9;
56688;PMS5003;42565;53.342;-1.534;2024-03-25T07:59:51;11;10;
56688;PMS5003;42565;53.342;-1.534;2024-03-25T08:02:18;8;8;
56688;PMS5003;42565;53.342;-1.534;2024-03-25T08:04:45;10;8;
56688;PMS5003;42565;53.342;-1.534;2024-03-25T08:07:12;10;8;
56688;PMS5003;42565;53.342;-1.534;2024-03-25T08:09:39;11;11;
56688;PMS5003;42565;53.342;-1.534;2024-03-25T08:12:07;9;9;
56688;PMS5003;42565;53.342;-1.534;2024-03-25T08:14:34;14;12;
56688;PMS5003;42565;53.342;-1.534;2024-03-25T08:17:01;9;9;
56688;PMS5003;42565;53.342;-1.534;2024-03-25T08:19:29;10;10;
56688;PMS5003;42565;53.342;-1.534;2024-03-25T08:21:57;11;9;
56688;PMS5003;42565;53.342;-1.534;2024-03-25T08:24:24;9;7;
56688;PMS5003;42565;53.342;-1.534;2024-03-25T08:26:51;11;9;
56688;PMS5003;42565;53.342;-1.534;2024-03-25T08:29:19;11;9;
56688;PMS5003;42565;53.342;-1.534;2024-03-25T08:31:46;10;10;
56688;PMS5003;42565;53.342;-1.534;2024-03-25T08:34:13;10;9;
56688;PMS5003;42565;53.342;-1.534;2024-03-25T08:36:40;11;10;
56688;PMS5003;42565;53.342;-1.534;2024-03-25T08:39:07;11;10;
56688;PMS5003;42565;53.342;-1.534;2024-03-25T08:41:33;10;10;
56688;PMS5003;42565;53.342;-1.534;2024-03-25T08:44:01;11;10;
56688;PMS5003;42565;53.342;-1.534;2024-03-25T08:46:29;14;12;
56688;PMS5003;42565;53.342;-1.534;2024-03-25T08:48:56;9;9;
56688;PMS5003;42565;53.342;-1.534;2024-03-25T08:51:23;9;9;
56688;PMS5003;42565;53.342;-1.534;2024-03-25T08:53:50;9;7;
56688;PMS5003;42565;53.342;-1.534;2024-03-25T08:56:17;12;12;
56688;PMS5003;42565;53.342;-1.534;2024-03-25T08:58:44;15;11;
56688;PMS5003;42565;53.342;-1.534;2024-03-25T09:01:11;12;11;
56688;PMS5003;42565;53.342;-1.534;2024-03-25T09:03:38;13;12;
56688;PMS5003;42565;53.342;-1.534;2024-03-25T09:06:06;13;12;
56688;PMS5003;42565;53.342;-1.534;2024-03-25T09:08:33;16;14;
56688;PMS5003;42565;53.342;-1.534;2024-03-25T09:11:01;13;12;
56688;PMS5003;42565;53.342;-1.534;2024-03-25T09:13:29;12;12;
56688;PMS5003;42565;53.342;-1.534;2024-03-25T09:15:56;16;15;
56688;PMS5003;42565;53.342;-1.534;2024-03-25T09:18:24;14;13;
56688;PMS5003;42565;53.342;-1.534;2024-03-25T09:20:52;17;15;
56688;PMS5003;42565;53.342;-1.534;2024-03-25T09:23:19;19;18;
56688;PMS5003;42565;53.342;-1.534;2024-03-25T09:25:51;18;18;
56688;PMS5003;42565;53.342;-1.534;2024-03-25T09:28:19;18;17;
56688;PMS5003;42565;53.342;-1.534;2024-03-25T09:30:47;17;14;
56688;PMS5003;42565;53.342;-1.534;2024-03-25T09:33:14;16;14;
56688;PMS5003;42565;53.342;-1.534;2024-03-25T09:35:42;16;16;
56688;PMS5003;42565;53.342;-1.534;2024-03-25T09:38:09;20;18;
56688;PMS5003;42565;53.342;-1.534;2024-03-25T09:40:36;19;17;
56688;PMS5003;42565;53.342;-1.534;2024-03-25T09:43:10;23;20;
56688;PMS5003;42565;53.342;-1.534;2024-03-25T09:45:40;18;17;
56688;PMS5003;42565;53.342;-1.534;2024-03-25T09:48:08;22;21;
56688;PMS5003;42565;53.342;-1.534;2024-03-25T09:50:36;19;17;
56688;PMS5003;42565;53.342;-1.534;2024-03-25T09:53:05;23;22;
56688;PMS5003;42565;53.342;-1.534;2024-03-25T09:55:32;20;20;
56688;PMS5003;42565;53.342;-1.534;2024-03-25T09:57:59;22;21;
56688;PMS5003;42565;53.342;-1.534;2024-03-25T10:00:27;19;18;
56688;PMS5003;42565;53.342;-1.534;2024-03-25T10:02:54;19;18;
56688;PMS5003;42565;53.342;-1.534;2024-03-25T10:05:21;20;18;
56688;PMS5003;42565;53.342;-1.534;2024-03-25T10:07:48;21;21;
56688;PMS5003;42565;53.342;-1.534;2024-03-25T10:10:19;20;20;
56688;PMS5003;42565;53.342;-1.534;2024-03-25T10:12:46;23;22;
56688;PMS5003;42565;53.342;-1.534;2024-03-25T10:15:15;20;20;
56688;PMS5003;42565;53.342;-1.534;2024-03-25T10:17:43;16;14;
56688;PMS5003;42565;53.342;-1.534;2024-03-25T10:20:13;18;17;
56688;PMS5003;42565;53.342;-1.534;2024-03-25T10:22:40;21;20;
56688;PMS5003;42565;53.342;-1.534;2024-03-25T10:25:18;16;16;
56688;PMS5003;42565;53.342;-1.534;2024-03-25T10:27:55;19;18;
56688;PMS5003;42565;53.342;-1.534;2024-03-25T10:30:23;19;18;
56688;PMS5003;42565;53.342;-1.534;2024-03-25T10:32:58;20;19;
56688;PMS5003;42565;53.342;-1.534;2024-03-25T10:35:26;18;17;
56688;PMS5003;42565;53.342;-1.534;2024-03-25T10:37:55;21;20;
56688;PMS5003;42565;53.342;-1.534;2024-03-25T10:40:27;18;18;
56688;PMS5003;42565;53.342;-1.534;2024-03-25T10:42:57;16;16;
56688;PMS5003;42565;53.342;-1.534;2024-03-25T10:45:28;19;17;
56688;PMS5003;42565;53.342;-1.534;2024-03-25T10:47:57;17;17;
56688;PMS5003;42565;53.342;-1.534;2024-03-25T10:50:28;18;16;
56688;PMS5003;42565;53.342;-1.534;2024-03-25T10:52:57;18;18;
56688;PMS5003;42565;53.342;-1.534;2024-03-25T10:55:25;19;18;
56688;PMS5003;42565;53.342;-1.534;2024-03-25T10:57:53;18;17;
56688;PMS5003;42565;53.342;-1.534;2024-03-25T11:00:22;18;18;
56688;PMS5003;42565;53.342;-1.534;2024-03-25T11:02:49;17;14;
56688;PMS5003;42565;53.342;-1.534;2024-03-25T11:05:18;18;17;
56688;PMS5003;42565;53.342;-1.534;2024-03-25T11:07:45;19;17;
56688;PMS5003;42565;53.342;-1.534;2024-03-25T11:10:12;21;19;
56688;PMS5003;42565;53.342;-1.534;2024-03-25T11:12:40;17;16;
56688;PMS5003;42565;53.342;-1.534;2024-03-25T11:15:08;17;16;
56688;PMS5003;42565;53.342;-1.534;2024-03-25T11:17:36;19;18;
56688;PMS5003;42565;53.342;-1.534;2024-03-25T11:20:15;20;18;
56688;PMS5003;42565;53.342;-1.534;2024-03-25T11:22:50;15;15;
56688;PMS5003;42565;53.342;-1.534;2024-03-25T11:25:20;14;14;
56688;PMS5003;42565;53.342;-1.534;2024-03-25T11:27:47;15;14;
56688;PMS5003;42565;53.342;-1.534;2024-03-25T11:30:15;18;17;
56688;PMS5003;42565;53.342;-1.534;2024-03-25T11:32:43;14;12;
56688;PMS5003;42565;53.342;-1.534;2024-03-25T11:35:12;15;14;
56688;PMS5003;42565;53.342;-1.534;2024-03-25T11:37:39;17;15;
56688;PMS5003;42565;53.342;-1.534;2024-03-25T11:40:08;16;14;
56688;PMS5003;42565;53.342;-1.534;2024-03-25T11:42:37;14;14;
56688;PMS5003;42565;53.342;-1.534;2024-03-25T11:45:05;17;14;
56688;PMS5003;42565;53.342;-1.534;2024-03-25T11:47:34;13;13;
56688;PMS5003;42565;53.342;-1.534;2024-03-25T11:50:07;15;14;
56688;PMS5003;42565;53.342;-1.534;2024-03-25T11:52:40;15;14;
56688;PMS5003;42565;53.342;-1.534;2024-03-25T11:55:08;16;15;
56688;PMS5003;42565;53.342;-1.534;2024-03-25T11:57:36;17;17;
56688;PMS5003;42565;53.342;-1.534;2024-03-25T12:00:04;17;17;
56688;PMS5003;42565;53.342;-1.534;2024-03-25T12:02:32;17;17;
56688;PMS5003;42565;53.342;-1.534;2024-03-25T12:04:59;21;16;
56688;PMS5003;42565;53.342;-1.534;2024-03-25T12:07:26;16;16;
56688;PMS5003;42565;53.342;-1.534;2024-03-25T12:09:53;20;18;
56688;PMS5003;42565;53.342;-1.534;2024-03-25T12:12:20;16;15;
56688;PMS5003;42565;53.342;-1.534;2024-03-25T12:14:47;19;17;
56688;PMS5003;42565;53.342;-1.534;2024-03-25T12:17:16;21;19;
56688;PMS5003;42565;53.342;-1.534;2024-03-25T12:19:43;17;15;
56688;PMS5003;42565;53.342;-1.534;2024-03-25T12:22:10;13;13;
56688;PMS5003;42565;53.342;-1.534;2024-03-25T12:24:49;16;15;
56688;PMS5003;42565;53.342;-1.534;2024-03-25T12:27:16;16;14;
56688;PMS5003;42565;53.342;-1.534;2024-03-25T12:29:44;17;14;
56688;PMS5003;42565;53.342;-1.534;2024-03-25T12:32:41;16;15;
56688;PMS5003;42565;53.342;-1.534;2024-03-25T12:35:10;15;13;
56688;PMS5003;42565;53.342;-1.534;2024-03-25T12:37:38;15;13;
56688;PMS5003;42565;53.342;-1.534;2024-03-25T12:40:09;16;16;
56688;PMS5003;42565;53.342;-1.534;2024-03-25T12:42:37;18;16;
56688;PMS5003;42565;53.342;-1.534;2024-03-25T12:45:05;15;15;
56688;PMS5003;42565;53.342;-1.534;2024-03-25T12:47:33;18;17;
56688;PMS5003;42565;53.342;-1.534;2024-03-25T12:50:00;19;17;
56688;PMS5003;42565;53.342;-1.534;2024-03-25T12:52:27;15;15;
56688;PMS5003;42565;53.342;-1.534;2024-03-25T12:54:54;15;13;
56688;PMS5003;42565;53.342;-1.534;2024-03-25T12:57:26;13;13;
56688;PMS5003;42565;53.342;-1.534;2024-03-25T12:59:54;15;14;
56688;PMS5003;42565;53.342;-1.534;2024-03-25T13:02:21;20;18;
56688;PMS5003;42565;53.342;-1.534;2024-03-25T13:04:48;20;19;
56688;PMS5003;42565;53.342;-1.534;2024-03-25T13:07:15;17;16;
56688;PMS5003;42565;53.342;-1.534;2024-03-25T13:09:42;18;16;
56688;PMS5003;42565;53.342;-1.534;2024-03-25T13:12:10;19;16;
56688;PMS5003;42565;53.342;-1.534;2024-03-25T13:14:37;18;16;
56688;PMS5003;42565;53.342;-1.534;2024-03-25T13:17:05;17;15;
56688;PMS5003;42565;53.342;-1.534;2024-03-25T13:19:32;18;17;
56688;PMS5003;42565;53.342;-1.534;2024-03-25T13:21:59;16;16;
56688;PMS5003;42565;53.342;-1.534;2024-03-25T13:24:27;16;15;
56688;PMS5003;42565;53.342;-1.534;2024-03-25T13:26:54;17;15;
56688;PMS5003;42565;53.342;-1.534;2024-03-25T13:29:21;18;15;
56688;PMS5003;42565;53.342;-1.534;2024-03-25T13:31:48;17;17;
56688;PMS5003;42565;53.342;-1.534;2024-03-25T13:34:20;13;13;
56688;PMS5003;42565;53.342;-1.534;2024-03-25T13:36:48;11;11;
56688;PMS5003;42565;53.342;-1.534;2024-03-25T13:39:14;11;11;
56688;PMS5003;42565;53.342;-1.534;2024-03-25T13:41:41;13;12;
56688;PMS5003;42565;53.342;-1.534;2024-03-25T13:44:08;13;13;
56688;PMS5003;42565;53.342;-1.534;2024-03-25T13:46:35;12;12;
56688;PMS5003;42565;53.342;-1.534;2024-03-25T13:49:02;11;11;
56688;PMS5003;42565;53.342;-1.534;2024-03-25T13:51:29;11;10;
56688;PMS5003;42565;53.342;-1.534;2024-03-25T13:53:56;10;10;
56688;PMS5003;42565;53.342;-1.534;2024-03-25T13:56:23;9;9;
56688;PMS5003;42565;53.342;-1.534;2024-03-25T13:58:54;11;10;
56688;PMS5003;42565;53.342;-1.534;2024-03-25T14:01:21;8;8;
56688;PMS5003;42565;53.342;-1.534;2024-03-25T14:03:48;8;7;
56688;PMS5003;42565;53.342;-1.534;2024-03-25T14:06:15;8;7;
56688;PMS5003;42565;53.342;-1.534;2024-03-25T14:08:43;10;9;
56688;PMS5003;42565;53.342;-1.534;2024-03-25T14:11:10;7;6;
56688;PMS5003;42565;53.342;-1.534;2024-03-25T14:13:38;7;7;
56688;PMS5003;42565;53.342;-1.534;2024-03-25T14:16:06;9;9;
56688;PMS5003;42565;53.342;-1.534;2024-03-25T14:18:33;10;9;
56688;PMS5003;42565;53.342;-1.534;2024-03-25T14:21:01;7;7;
56688;PMS5003;42565;53.342;-1.534;2024-03-25T14:23:28;8;8;
56688;PMS5003;42565;53.342;-1.534;2024-03-25T14:25:55;9;9;
56688;PMS5003;42565;53.342;-1.534;2024-03-25T14:28:22;7;7;
56688;PMS5003;42565;53.342;-1.534;2024-03-25T14:30:48;11;10;
56688;PMS5003;42565;53.342;-1.534;2024-03-25T14:33:16;8;8;
56688;PMS5003;42565;53.342;-1.534;2024-03-25T14:35:42;9;8;
56688;PMS5003;42565;53.342;-1.534;2024-03-25T14:38:09;9;8;
56688;PMS5003;42565;53.342;-1.534;2024-03-25T14:40:37;15;13;
56688;PMS5003;42565;53.342;-1.534;2024-03-25T14:43:05;9;9;
56688;PMS5003;42565;53.342;-1.534;2024-03-25T14:45:32;10;10;
56688;PMS5003;42565;53.342;-1.534;2024-03-25T14:47:59;10;9;
56688;PMS5003;42565;53.342;-1.534;2024-03-25T14:50:32;9;8;
56688;PMS5003;42565;53.342;-1.534;2024-03-25T14:52:59;11;11;
56688;PMS5003;42565;53.342;-1.534;2024-03-25T14:55:31;14;11;
56688;PMS5003;42565;53.342;-1.534;2024-03-25T14:57:59;9;8;
56688;PMS5003;42565;53.342;-1.534;2024-03-25T15:00:26;12;11;
56688;PMS5003;42565;53.342;-1.534;2024-03-25T15:02:53;9;9;
56688;PMS5003;42565;53.342;-1.534;2024-03-25T15:05:20;13;12;
56688;PMS5003;42565;53.342;-1.534;2024-03-25T15:07:48;13;11;
56688;PMS5003;42565;53.342;-1.534;2024-03-25T15:10:15;14;12;
56688;PMS5003;42565;53.342;-1.534;2024-03-25T15:12:42;11;10;
56688;PMS5003;42565;53.342;-1.534;2024-03-25T15:15:11;13;13;
56688;PMS5003;42565;53.342;-1.534;2024-03-25T15:17:39;12;12;
56688;PMS5003;42565;53.342;-1.534;2024-03-25T15:20:07;12;11;
56688;PMS5003;42565;53.342;-1.534;2024-03-25T15:22:35;13;12;
56688;PMS5003;42565;53.342;-1.534;2024-03-25T15:25:03;11;10;
56688;PMS5003;42565;53.342;-1.534;2024-03-25T15:27:31;16;14;
56688;PMS5003;42565;53.342;-1.534;2024-03-25T15:29:57;11;11;
56688;PMS5003;42565;53.342;-1.534;2024-03-25T15:32:24;11;11;
56688;PMS5003;42565;53.342;-1.534;2024-03-25T15:34:51;18;16;
56688;PMS5003;42565;53.342;-1.534;2024-03-25T15:37:18;16;16;
56688;PMS5003;42565;53.342;-1.534;2024-03-25T15:39:46;23;23;
56688;PMS5003;42565;53.342;-1.534;2024-03-25T15:42:13;21;20;
56688;PMS5003;42565;53.342;-1.534;2024-03-25T15:44:40;25;23;
56688;PMS5003;42565;53.342;-1.534;2024-03-25T15:47:07;13;12;
56688;PMS5003;42565;53.342;-1.534;2024-03-25T15:49:34;11;11;
56688;PMS5003;42565;53.342;-1.534;2024-03-25T15:52:02;12;10;
56688;PMS5003;42565;53.342;-1.534;2024-03-25T15:54:29;7;7;
56688;PMS5003;42565;53.342;-1.534;2024-03-25T15:56:56;9;8;
56688;PMS5003;42565;53.342;-1.534;2024-03-25T15:59:23;8;7;
56688;PMS5003;42565;53.342;-1.534;2024-03-25T16:01:49;8;8;
56688;PMS5003;42565;53.342;-1.534;2024-03-25T16:04:17;6;6;
56688;PMS5003;42565;53.342;-1.534;2024-03-25T16:06:44;8;8;
56688;PMS5003;42565;53.342;-1.534;2024-03-25T16:09:10;6;6;